Time;durP1;ratioP1;P1;durP2;ratioP2;P2;SDS_P1;SDS_P2;PMS_P1;PMS_P2;Temp;Humidity;BMP_temperature;BMP_pressure;BME280_temperature;BME280_humidity;BME280_pressure;Samples;Min_cycle;Max_cycle;Signal;HPM_P1;HPM_P2
2024/04/17 05:03:27;;;;;;;4.13;0.40;;;5.70;99.90;;;;;;6581484;21;20034;-83
2024/04/17 05:05:57;;;;;;;1.85;0.40;;;5.70;99.90;;;;;;6578900;21;20008;-84
2024/04/17 05:08:26;;;;;;;1.63;0.70;;;5.70;99.90;;;;;;6577615;21;20004;-84
2024/04/17 05:10:53;;;;;;;1.52;0.43;;;5.70;99.90;;;;;;6576129;21;20010;-85
2024/04/17 05:13:20;;;;;;;5.78;1.05;;;5.70;99.90;;;;;;6575487;21;20016;-85
2024/04/17 05:15:47;;;;;;;2.90;0.40;;;5.80;99.90;;;;;;6575595;21;20061;-85
2024/04/17 05:18:13;;;;;;;2.50;0.30;;;5.80;99.90;;;;;;6573984;21;20024;-83
2024/04/17 05:21:06;;;;;;;3.30;0.43;;;5.80;99.90;;;;;;6574283;21;20438;-86
2024/04/17 05:23:42;;;;;;;0.75;0.30;;;5.80;99.90;;;;;;6564444;21;20002;-87
2024/04/17 05:26:07;;;;;;;5.00;1.25;;;5.90;99.90;;;;;;6575178;21;19993;-85
2024/04/17 05:28:34;;;;;;;4.07;0.50;;;5.90;99.90;;;;;;6578199;21;20345;-85
2024/04/17 05:31:09;;;;;;;3.42;0.60;;;5.90;99.90;;;;;;6575269;21;20011;-85
2024/04/17 05:33:35;;;;;;;2.00;0.30;;;6.00;99.90;;;;;;6576712;21;20312;-85
2024/04/17 05:36:00;;;;;;;4.32;0.73;;;6.10;99.90;;;;;;6575462;21;20005;-85
2024/04/17 05:38:26;;;;;;;2.45;0.30;;;6.10;99.90;;;;;;6577627;21;20001;-84
2024/04/17 05:40:54;;;;;;;3.85;0.43;;;7.20;99.90;;;;;;6577433;21;20674;-83
2024/04/17 05:59:14;;;;;;;2.10;0.22;;;6.60;99.90;;;;;;6373993;22;20029;-85
2024/04/17 06:01:51;;;;;;;4.10;0.82;;;6.70;99.90;;;;;;6323518;22;20041;-83
2024/04/17 06:04:23;;;;;;;2.45;0.30;;;6.80;99.90;;;;;;6520832;21;20028;-84
2024/04/17 06:06:50;;;;;;;2.50;0.40;;;6.90;99.90;;;;;;6574522;21;20386;-85
2024/04/17 06:09:16;;;;;;;3.05;0.77;;;6.90;99.90;;;;;;6572067;21;20016;-86
2024/04/17 06:11:54;;;;;;;3.05;0.93;;;6.90;99.90;;;;;;6572558;21;20082;-86
2024/04/17 06:14:39;;;;;;;2.75;0.30;;;6.90;99.90;;;;;;6575099;21;20509;-84
2024/04/17 06:17:34;;;;;;;1.27;0.40;;;6.90;99.90;;;;;;6574760;21;20004;-84
2024/04/17 06:20:19;;;;;;;2.28;0.20;;;7.00;99.90;;;;;;6582134;21;20011;-85
2024/04/17 06:22:45;;;;;;;1.45;0.30;;;7.00;99.90;;;;;;6533851;21;20004;-85
2024/04/17 06:25:11;;;;;;;3.10;0.63;;;7.10;99.90;;;;;;6575691;21;20000;-85
2024/04/17 06:27:38;;;;;;;1.60;0.30;;;7.00;99.90;;;;;;6575558;21;20315;-84
2024/04/17 06:30:07;;;;;;;3.70;0.30;;;7.10;99.90;;;;;;6532479;21;20320;-85
2024/04/17 06:33:16;;;;;;;2.35;0.40;;;6.90;99.90;;;;;;6489846;21;20707;-85
2024/04/17 06:35:46;;;;;;;2.95;0.30;;;6.90;99.90;;;;;;6576145;21;20001;-84
2024/04/17 06:38:12;;;;;;;1.80;0.20;;;6.90;99.90;;;;;;6575064;21;20001;-85
2024/04/17 06:40:38;;;;;;;1.77;0.25;;;6.90;99.90;;;;;;6576224;21;20004;-85
2024/04/17 06:43:06;;;;;;;5.68;0.47;;;7.10;99.90;;;;;;6532964;21;20015;-86
2024/04/17 06:45:32;;;;;;;4.05;0.40;;;7.00;99.90;;;;;;6575261;21;20311;-84
2024/04/17 06:48:06;;;;;;;4.00;0.30;;;7.00;99.90;;;;;;6531886;21;20385;-85
2024/04/17 06:51:04;;;;;;;5.35;1.30;;;7.00;99.90;;;;;;6576496;21;20001;-85
2024/04/17 06:53:30;;;;;;;4.65;0.50;;;7.00;99.90;;;;;;6576164;21;20000;-85
2024/04/17 06:55:59;;;;;;;5.68;0.75;;;7.30;99.90;;;;;;6532899;21;20443;-85
2024/04/17 06:58:25;;;;;;;6.25;1.13;;;7.00;99.90;;;;;;6574992;21;20431;-85
2024/04/17 07:00:59;;;;;;;7.82;1.27;;;7.10;99.90;;;;;;6575405;21;20078;-86
2024/04/17 07:03:38;;;;;;;5.90;0.52;;;7.10;99.90;;;;;;6535206;21;20044;-85
2024/04/17 07:06:29;;;;;;;7.15;0.90;;;7.40;99.90;;;;;;6575723;21;20019;-85
2024/04/17 07:09:00;;;;;;;5.53;0.95;;;7.30;99.90;;;;;;6533310;21;20004;-85
2024/04/17 07:11:43;;;;;;;7.22;0.60;;;7.60;99.90;;;;;;6574668;21;19997;-85
2024/04/17 07:14:09;;;;;;;5.70;0.82;;;7.50;99.90;;;;;;6577811;21;20012;-85
2024/04/17 07:16:35;;;;;;;7.50;0.50;;;8.20;99.90;;;;;;6532267;21;20052;-85
2024/04/17 07:19:02;;;;;;;4.22;0.50;;;8.20;99.90;;;;;;6573279;21;20011;-84
2024/04/17 07:21:31;;;;;;;5.25;0.75;;;7.50;99.90;;;;;;6574602;21;20000;-85
2024/04/17 07:23:58;;;;;;;5.18;0.80;;;7.40;99.90;;;;;;6576089;21;20004;-85
2024/04/17 07:26:32;;;;;;;5.80;1.90;;;7.40;99.90;;;;;;6577602;21;20028;-85
2024/04/17 07:28:58;;;;;;;4.03;1.30;;;7.60;99.90;;;;;;6575754;21;20019;-85
2024/04/17 07:31:40;;;;;;;7.05;1.15;;;7.60;99.90;;;;;;6574790;21;20011;-85
2024/04/17 07:34:07;;;;;;;2.22;0.50;;;8.10;99.90;;;;;;6573197;21;20079;-84
2024/04/17 07:36:33;;;;;;;3.60;0.95;;;7.80;99.90;;;;;;6572687;21;20078;-85
2024/04/17 07:38:59;;;;;;;2.08;0.50;;;8.00;99.90;;;;;;6574082;21;20016;-85
2024/04/17 07:41:24;;;;;;;6.38;1.40;;;8.20;99.90;;;;;;6573307;21;20000;-86
2024/04/17 07:43:50;;;;;;;8.20;0.60;;;8.30;99.90;;;;;;6576275;21;20012;-85
2024/04/17 07:46:16;;;;;;;4.40;0.52;;;8.50;99.90;;;;;;6576790;21;20004;-85
2024/04/17 07:48:41;;;;;;;4.93;0.88;;;9.40;99.90;;;;;;6576211;21;20000;-85
2024/04/17 07:51:07;;;;;;;6.22;0.80;;;9.40;99.90;;;;;;6574819;21;20016;-85
2024/04/17 07:53:33;;;;;;;6.85;1.77;;;9.50;99.90;;;;;;6575631;21;20331;-84
2024/04/17 07:55:58;;;;;;;5.25;0.80;;;9.90;99.90;;;;;;6576486;21;20078;-84
2024/04/17 07:58:24;;;;;;;8.70;1.15;;;10.90;99.90;;;;;;6575662;21;20012;-85
2024/04/17 08:00:50;;;;;;;5.72;1.00;;;10.70;99.90;;;;;;6574041;21;20788;-85
2024/04/17 08:03:15;;;;;;;3.05;0.60;;;10.90;99.90;;;;;;6573977;21;20420;-85
2024/04/17 08:05:44;;;;;;;6.93;1.77;;;10.90;99.90;;;;;;6574206;21;20005;-85
2024/04/17 08:08:09;;;;;;;4.20;0.70;;;10.90;99.90;;;;;;6574797;21;20000;-85
2024/04/17 08:10:36;;;;;;;5.68;1.05;;;10.80;99.90;;;;;;6574441;21;20041;-85
2024/04/17 08:13:11;;;;;;;8.82;1.05;;;10.80;99.90;;;;;;6575145;21;20004;-85
2024/04/17 08:15:44;;;;;;;4.50;0.88;;;10.40;99.90;;;;;;6573076;21;20431;-85
2024/04/17 08:18:10;;;;;;;6.13;0.75;;;10.00;99.90;;;;;;6574660;21;20008;-85
2024/04/17 08:20:36;;;;;;;3.85;0.63;;;10.60;99.90;;;;;;6575562;21;20013;-85
2024/04/17 08:23:02;;;;;;;8.30;1.65;;;9.60;99.90;;;;;;6576221;21;20404;-85
2024/04/17 08:25:28;;;;;;;8.85;1.00;;;9.50;99.90;;;;;;6576117;21;20012;-85
2024/04/17 08:27:53;;;;;;;7.82;0.95;;;9.50;99.90;;;;;;6575966;21;20331;-85
2024/04/17 08:30:19;;;;;;;6.15;0.70;;;10.20;99.90;;;;;;6573912;21;20020;-85
2024/04/17 08:32:46;;;;;;;5.63;0.95;;;9.80;99.90;;;;;;6576543;21;20327;-85
2024/04/17 08:35:12;;;;;;;11.75;1.73;;;10.10;99.90;;;;;;6574212;21;20034;-85
2024/04/17 08:37:38;;;;;;;7.18;0.80;;;11.20;99.90;;;;;;6576189;21;20020;-85
2024/04/17 08:40:05;;;;;;;6.68;1.13;;;10.60;99.90;;;;;;6575732;21;20004;-85
2024/04/17 08:42:34;;;;;;;6.13;0.60;;;10.80;99.90;;;;;;6576269;21;20005;-85
2024/04/17 08:45:08;;;;;;;6.90;1.60;;;11.10;99.90;;;;;;6575795;21;20040;-85
2024/04/17 08:47:36;;;;;;;8.23;1.00;;;11.60;99.90;;;;;;6575634;21;20410;-85
2024/04/17 08:50:03;;;;;;;6.45;0.90;;;11.90;99.90;;;;;;6576339;21;20004;-85
2024/04/17 08:52:32;;;;;;;7.28;0.75;;;12.30;99.90;;;;;;6575513;21;20011;-85
2024/04/17 08:54:58;;;;;;;9.40;1.95;;;12.40;99.90;;;;;;6578713;21;20028;-85
2024/04/17 08:57:24;;;;;;;4.50;0.88;;;12.60;99.90;;;;;;6575903;21;20008;-85
2024/04/17 08:59:50;;;;;;;9.50;1.60;;;12.60;99.90;;;;;;6576562;21;20015;-85
2024/04/17 09:02:16;;;;;;;6.60;1.08;;;12.80;99.90;;;;;;6577013;21;20700;-85
2024/04/17 09:04:46;;;;;;;7.18;0.70;;;12.80;99.90;;;;;;6575121;21;20028;-86
2024/04/17 09:07:12;;;;;;;7.95;1.02;;;13.10;99.90;;;;;;6576965;21;20015;-85
2024/04/17 09:09:40;;;;;;;2.88;0.47;;;13.00;99.90;;;;;;6576575;21;20005;-85
2024/04/17 09:12:10;;;;;;;6.88;0.90;;;13.00;99.90;;;;;;6576107;21;20012;-85
2024/04/17 09:14:36;;;;;;;2.75;0.70;;;12.80;99.90;;;;;;6575452;21;20012;-86
2024/04/17 09:17:02;;;;;;;6.03;1.17;;;12.80;99.90;;;;;;6577632;21;20005;-86
2024/04/17 09:19:28;;;;;;;4.63;1.20;;;13.10;99.90;;;;;;6576907;21;20019;-86
2024/04/17 09:21:54;;;;;;;4.55;0.90;;;12.90;99.90;;;;;;6577707;21;20082;-86
2024/04/17 09:24:20;;;;;;;5.68;0.90;;;13.30;99.90;;;;;;6575650;21;20015;-86
2024/04/17 09:26:46;;;;;;;7.72;1.02;;;14.10;99.90;;;;;;6577610;21;20019;-86
2024/04/17 09:29:15;;;;;;;6.03;0.80;;;14.10;99.90;;;;;;6575092;21;20000;-86
2024/04/17 09:31:44;;;;;;;6.75;1.13;;;13.90;99.90;;;;;;6576346;21;20049;-86
2024/04/17 09:34:15;;;;;;;3.80;0.73;;;14.20;99.90;;;;;;6576209;21;20016;-86
2024/04/17 09:36:50;;;;;;;5.82;1.13;;;14.80;99.90;;;;;;6574934;21;20055;-86
2024/04/17 09:39:16;;;;;;;3.80;0.40;;;14.70;99.90;;;;;;6577617;21;20055;-86
2024/04/17 09:41:42;;;;;;;5.60;0.40;;;14.70;99.90;;;;;;6577092;21;20012;-86
2024/04/17 09:44:11;;;;;;;4.45;0.30;;;15.20;99.90;;;;;;6577402;21;20015;-86
2024/04/17 09:46:37;;;;;;;4.20;0.60;;;14.80;99.90;;;;;;6576876;21;20706;-86
2024/04/17 09:49:13;;;;;;;3.67;0.93;;;14.80;99.90;;;;;;6575989;21;20004;-86
2024/04/17 09:51:39;;;;;;;;;;;15.10;99.90;;;;;;6577942;21;20014;-85
2024/04/17 09:54:10;;;;;;;3.80;0.52;;;14.50;99.60;;;;;;6577253;21;19921;-86
2024/04/17 09:56:36;;;;;;;4.00;0.45;;;13.90;98.60;;;;;;6577303;21;20016;-85
2024/04/17 09:59:03;;;;;;;5.05;0.52;;;13.30;99.70;;;;;;6575118;21;20355;-85
2024/04/17 10:01:30;;;;;;;5.80;0.60;;;13.20;99.30;;;;;;6576478;21;20118;-85
2024/04/17 10:03:56;;;;;;;3.97;0.65;;;12.50;99.30;;;;;;6575679;21;20614;-86
2024/04/17 10:06:23;;;;;;;3.85;0.60;;;12.60;99.90;;;;;;6576708;21;20000;-86
2024/04/17 10:08:51;;;;;;;5.82;0.57;;;12.30;99.90;;;;;;6574795;21;20335;-86
2024/04/17 10:11:17;;;;;;;10.85;0.95;;;13.20;99.90;;;;;;6577045;21;20019;-86
2024/04/17 10:13:45;;;;;;;4.70;1.27;;;12.80;99.90;;;;;;6574922;21;20054;-86
2024/04/17 10:16:11;;;;;;;4.95;0.90;;;12.80;99.90;;;;;;6577580;21;20012;-86
2024/04/17 10:18:37;;;;;;;5.57;1.15;;;13.00;99.90;;;;;;6577219;21;20004;-85
2024/04/17 10:21:03;;;;;;;4.32;0.50;;;12.20;99.90;;;;;;6577142;21;20005;-85
2024/04/17 10:23:29;;;;;;;4.78;0.50;;;12.20;99.90;;;;;;6577065;21;20004;-85
2024/04/17 10:25:58;;;;;;;7.13;1.45;;;12.20;99.90;;;;;;6577859;21;20012;-86
2024/04/17 10:28:27;;;;;;;6.53;1.00;;;12.50;99.90;;;;;;6574769;21;20000;-85
2024/04/17 10:30:58;;;;;;;6.05;0.63;;;12.10;99.90;;;;;;6576578;21;20070;-84
2024/04/17 10:33:33;;;;;;;3.65;0.70;;;12.00;99.90;;;;;;6576535;21;20036;-85
2024/04/17 10:36:06;;;;;;;4.32;1.05;;;12.00;99.90;;;;;;6575433;21;20443;-85
2024/04/17 10:38:32;;;;;;;2.90;0.75;;;11.80;99.90;;;;;;6576424;21;20004;-84
2024/04/17 10:41:01;;;;;;;4.53;0.43;;;11.70;99.90;;;;;;6575824;21;20004;-84
2024/04/17 10:43:30;;;;;;;3.63;0.55;;;12.50;99.90;;;;;;6576723;21;20005;-84
2024/04/17 10:45:56;;;;;;;3.50;0.47;;;11.30;99.90;;;;;;6576457;21;20000;-84
2024/04/17 10:48:23;;;;;;;4.47;0.52;;;11.10;99.90;;;;;;6574029;21;20004;-84
2024/04/17 10:50:50;;;;;;;2.03;0.40;;;11.10;99.90;;;;;;6575260;21;20000;-84
2024/04/17 10:53:16;;;;;;;4.80;0.73;;;11.00;99.90;;;;;;6576229;21;20098;-84
2024/04/17 10:55:42;;;;;;;6.28;0.80;;;11.10;99.90;;;;;;6575888;21;20013;-84
2024/04/17 10:58:12;;;;;;;2.60;0.45;;;11.30;99.90;;;;;;6576319;21;20469;-84
2024/04/17 11:00:38;;;;;;;1.63;0.30;;;11.50;99.90;;;;;;6574737;21;20005;-85
2024/04/17 11:03:04;;;;;;;3.03;0.40;;;12.00;99.90;;;;;;6575229;21;20081;-85
2024/04/17 11:05:30;;;;;;;3.13;0.77;;;11.60;99.90;;;;;;6572295;21;20636;-85
2024/04/17 11:07:58;;;;;;;2.50;0.40;;;12.00;99.90;;;;;;6573802;21;20378;-85
2024/04/17 11:10:25;;;;;;;2.85;0.50;;;11.70;99.90;;;;;;6574788;21;20004;-84
2024/04/17 11:12:50;;;;;;;6.05;1.30;;;11.80;99.90;;;;;;6576064;21;20004;-84
2024/04/17 11:15:17;;;;;;;6.10;1.30;;;11.80;99.90;;;;;;6575408;21;19999;-84
2024/04/17 11:17:43;;;;;;;3.60;0.73;;;11.90;99.90;;;;;;6575818;21;20005;-84
2024/04/17 11:20:10;;;;;;;3.10;0.40;;;12.60;99.90;;;;;;6575831;21;20004;-84
2024/04/17 11:22:35;;;;;;;3.05;0.65;;;12.10;99.90;;;;;;6576388;21;20082;-84
2024/04/17 11:25:04;;;;;;;3.28;0.30;;;12.50;99.90;;;;;;6575476;21;20004;-84
2024/04/17 11:27:30;;;;;;;3.40;0.40;;;13.00;99.90;;;;;;6575006;21;20316;-85
2024/04/17 11:29:57;;;;;;;4.47;0.60;;;13.30;99.90;;;;;;6574734;21;20814;-84
2024/04/17 11:32:24;;;;;;;5.20;0.45;;;13.60;99.90;;;;;;6575244;21;20015;-85
2024/04/17 11:34:50;;;;;;;3.88;0.32;;;13.70;99.90;;;;;;6575687;21;20016;-84
2024/04/17 11:37:16;;;;;;;3.45;0.50;;;13.80;99.90;;;;;;6575483;21;20016;-84
2024/04/17 11:39:41;;;;;;;3.90;0.50;;;13.90;99.90;;;;;;6576391;21;20023;-84
2024/04/17 11:42:09;;;;;;;3.60;0.70;;;14.00;99.90;;;;;;6576227;21;20423;-84
2024/04/17 11:44:38;;;;;;;5.53;1.00;;;14.40;99.90;;;;;;6574460;21;20035;-84
2024/04/17 11:47:07;;;;;;;2.45;0.32;;;14.00;99.90;;;;;;6572689;21;20711;-84
2024/04/17 11:49:33;;;;;;;5.78;0.55;;;13.90;99.90;;;;;;6575356;21;20016;-84
2024/04/17 11:51:59;;;;;;;3.05;0.43;;;13.90;99.90;;;;;;6573585;21;20020;-84
2024/04/17 11:54:26;;;;;;;7.05;1.08;;;14.00;99.90;;;;;;6575862;21;20000;-84
2024/04/17 11:56:52;;;;;;;4.82;0.70;;;13.90;99.90;;;;;;6575386;21;20319;-84
2024/04/17 11:59:18;;;;;;;3.05;0.40;;;14.50;99.90;;;;;;6573803;21;20000;-84
2024/04/17 12:01:43;;;;;;;2.28;0.30;;;13.50;99.90;;;;;;6575121;21;20015;-84
2024/04/17 12:04:09;;;;;;;4.15;0.82;;;13.50;99.90;;;;;;6574355;21;20004;-84
2024/04/17 12:06:34;;;;;;;3.33;0.65;;;13.30;99.90;;;;;;6572218;21;20053;-84
2024/04/17 12:09:01;;;;;;;7.47;1.45;;;13.20;99.90;;;;;;6574831;21;20078;-83
2024/04/17 12:11:26;;;;;;;2.90;0.60;;;13.50;99.90;;;;;;6575321;21;20004;-84
2024/04/17 12:13:52;;;;;;;3.10;0.52;;;13.10;99.90;;;;;;6573811;21;20399;-84
2024/04/17 12:16:19;;;;;;;4.18;0.75;;;14.10;99.90;;;;;;6574531;21;19996;-84
2024/04/17 12:18:44;;;;;;;3.70;0.85;;;13.20;99.90;;;;;;6576032;21;20443;-84
2024/04/17 12:21:10;;;;;;;7.63;0.68;;;13.10;99.90;;;;;;6574986;21;20004;-84
2024/04/17 12:23:36;;;;;;;1.63;0.40;;;13.20;99.90;;;;;;6575481;21;20075;-84
2024/04/17 12:28:46;;;;;;;2.17;0.50;;;13.00;99.90;;;;;;6577759;21;20318;-84
2024/04/17 12:31:12;;;;;;;5.22;0.60;;;13.20;99.90;;;;;;6577964;21;20004;-83
2024/04/17 12:33:38;;;;;;;2.80;0.40;;;13.50;99.90;;;;;;6578443;21;20015;-84
2024/04/17 12:36:04;;;;;;;3.20;0.40;;;13.50;99.90;;;;;;6577145;21;20004;-84
2024/04/17 12:38:30;;;;;;;2.83;0.50;;;13.50;99.50;;;;;;6578564;21;20008;-84
2024/04/17 12:40:56;;;;;;;1.30;0.20;;;13.40;99.20;;;;;;6577675;21;20079;-84
2024/04/17 12:43:21;;;;;;;2.28;0.40;;;13.60;98.70;;;;;;6578364;21;20009;-84
2024/04/17 12:45:47;;;;;;;1.05;0.30;;;13.60;98.20;;;;;;6577313;21;20004;-84
2024/04/17 12:48:13;;;;;;;2.17;0.30;;;13.50;97.00;;;;;;6577762;21;20004;-84
2024/04/17 12:50:39;;;;;;;1.77;0.30;;;13.40;96.10;;;;;;6574982;21;20366;-84
2024/04/17 12:53:06;;;;;;;1.63;0.30;;;13.70;96.60;;;;;;6577534;21;20051;-84
2024/04/17 12:55:33;;;;;;;4.07;0.73;;;13.20;98.00;;;;;;6577279;21;20008;-84
2024/04/17 12:58:04;;;;;;;3.80;0.55;;;13.30;97.70;;;;;;6574682;21;20550;-83
2024/04/17 13:00:46;;;;;;;2.13;0.43;;;12.90;99.10;;;;;;6574356;21;20012;-84
2024/04/17 13:03:13;;;;;;;3.25;1.08;;;12.80;99.80;;;;;;6573119;21;20078;-84
2024/04/17 13:28:43;;;;;;;2.30;0.47;;;10.70;99.90;;;;;;6421904;22;20460;-84
2024/04/17 13:31:10;;;;;;;1.20;0.10;;;9.90;99.90;;;;;;6549737;21;20051;-84
2024/04/17 13:33:37;;;;;;;3.45;0.47;;;9.60;99.90;;;;;;6576713;21;20012;-84
2024/04/17 13:36:08;;;;;;;2.45;0.20;;;9.50;99.90;;;;;;6573689;21;20684;-84
2024/04/17 13:38:33;;;;;;;1.17;0.40;;;9.40;99.90;;;;;;6574622;21;20044;-84
2024/04/17 13:41:01;;;;;;;1.70;0.40;;;9.30;99.90;;;;;;6577184;21;20082;-84
2024/04/17 13:43:30;;;;;;;0.93;0.10;;;10.20;99.90;;;;;;6530314;21;20011;-84
2024/04/17 13:46:36;;;;;;;2.72;0.35;;;9.20;99.90;;;;;;6522655;22;20008;-83
2024/04/17 13:49:02;;;;;;;0.75;0.13;;;9.10;99.90;;;;;;6521021;21;20008;-83
2024/04/17 13:51:29;;;;;;;2.28;0.20;;;9.20;99.90;;;;;;6569274;21;19996;-83
2024/04/17 13:53:55;;;;;;;1.05;0.20;;;9.20;99.90;;;;;;6575161;21;20007;-83
2024/04/17 14:29:37;;;;;;;2.83;0.30;;;9.70;99.90;;;;;;6369187;22;20007;-81
2024/04/17 14:32:07;;;;;;;1.30;0.30;;;9.20;99.90;;;;;;6407365;21;20015;-82
2024/04/17 14:34:53;;;;;;;4.70;0.52;;;9.50;99.90;;;;;;6526652;21;20019;-82
2024/04/17 14:37:34;;;;;;;1.67;0.30;;;9.10;99.90;;;;;;6569086;21;20015;-82
2024/04/17 14:40:07;;;;;;;2.25;0.32;;;9.20;99.90;;;;;;6529691;21;20003;-82
2024/04/17 14:42:35;;;;;;;3.22;0.40;;;9.00;99.90;;;;;;6528345;21;20577;-81
2024/04/17 14:45:15;;;;;;;2.13;0.40;;;8.80;99.90;;;;;;6568618;21;20324;-82
2024/04/17 14:47:44;;;;;;;2.22;0.32;;;9.10;99.90;;;;;;6569228;21;20262;-82
2024/04/17 14:50:14;;;;;;;3.17;0.50;;;8.80;99.90;;;;;;6570270;21;20407;-82
2024/04/17 14:52:42;;;;;;;1.42;0.20;;;9.00;99.90;;;;;;6519150;22;20016;-83
2024/04/17 14:55:12;;;;;;;3.78;0.93;;;8.70;99.90;;;;;;6520900;21;20005;-82
2024/04/17 14:57:38;;;;;;;2.70;0.40;;;8.30;99.90;;;;;;6522956;21;20005;-82
2024/04/17 15:00:14;;;;;;;2.70;0.30;;;8.60;99.90;;;;;;6522306;21;20012;-82
2024/04/17 15:02:40;;;;;;;;;;;8.50;99.90;;;;;;6522470;22;20009;-84
2024/04/17 15:05:06;;;;;;;1.75;0.28;;;8.40;99.90;;;;;;6522175;22;19996;-82
2024/04/17 15:07:33;;;;;;;2.30;0.70;;;8.40;99.90;;;;;;6523538;21;20439;-82
2024/04/17 15:09:58;;;;;;;3.42;0.43;;;8.20;99.90;;;;;;6524363;21;20079;-82
2024/04/17 15:12:24;;;;;;;1.67;0.30;;;8.30;99.90;;;;;;6524247;22;20341;-82
2024/04/17 15:14:50;;;;;;;2.53;0.22;;;8.30;99.90;;;;;;6524935;22;20001;-82
2024/04/17 15:17:15;;;;;;;3.67;0.35;;;8.20;99.90;;;;;;6520854;22;20380;-82
2024/04/17 15:19:46;;;;;;;1.80;0.30;;;8.20;99.90;;;;;;6518388;21;20012;-82
2024/04/17 15:22:14;;;;;;;4.05;0.43;;;8.20;99.90;;;;;;6516854;22;20008;-82
2024/04/17 15:24:40;;;;;;;1.70;0.40;;;8.30;99.90;;;;;;6521102;22;20005;-82
2024/04/17 15:27:29;;;;;;;1.92;0.28;;;8.10;99.90;;;;;;6519605;22;20020;-83
2024/04/17 15:30:13;;;;;;;3.10;0.50;;;8.10;99.90;;;;;;6519534;21;20449;-82
2024/04/17 15:33:05;;;;;;;3.80;0.30;;;8.10;99.90;;;;;;6519295;22;20025;-81
2024/04/17 15:35:31;;;;;;;1.42;0.30;;;8.40;99.90;;;;;;6519936;22;20005;-82
2024/04/17 15:37:57;;;;;;;1.42;0.30;;;8.60;99.90;;;;;;6521451;21;20080;-82
2024/04/17 15:40:28;;;;;;;1.58;0.30;;;7.80;99.90;;;;;;6520428;22;20005;-83
2024/04/17 15:42:55;;;;;;;2.70;0.32;;;7.90;99.90;;;;;;6466773;22;20462;-82
2024/04/17 15:45:24;;;;;;;5.75;0.40;;;7.90;99.90;;;;;;6508370;22;20317;-84
2024/04/17 15:48:40;;;;;;;2.15;0.40;;;7.80;99.90;;;;;;6510812;22;20005;-83
2024/04/17 15:51:36;;;;;;;1.40;0.30;;;7.90;99.90;;;;;;6468945;22;20409;-83
2024/04/17 15:54:05;;;;;;;4.22;0.60;;;7.60;99.90;;;;;;6510690;22;20006;-84
2024/04/17 15:56:31;;;;;;;3.78;0.63;;;7.60;99.90;;;;;;6469388;22;20092;-84
2024/04/17 15:58:57;;;;;;;3.45;0.32;;;8.30;99.90;;;;;;6510606;21;20014;-83
2024/04/17 16:01:23;;;;;;;4.75;0.65;;;7.60;99.90;;;;;;6467996;22;20321;-84
2024/04/17 16:03:50;;;;;;;3.20;0.63;;;8.20;99.90;;;;;;6511408;22;20445;-85
2024/04/17 16:06:20;;;;;;;5.22;0.55;;;7.80;99.90;;;;;;6509284;22;20002;-84
2024/04/17 16:08:46;;;;;;;4.75;0.50;;;7.70;99.90;;;;;;6469961;22;20007;-84
2024/04/17 16:11:12;;;;;;;5.75;0.60;;;7.50;99.90;;;;;;6470784;22;20084;-84
2024/04/17 16:13:39;;;;;;;2.10;0.50;;;7.40;99.90;;;;;;6469588;22;20038;-84
2024/04/17 16:16:08;;;;;;;2.10;0.50;;;7.40;99.90;;;;;;6512164;22;20018;-84
2024/04/17 16:18:34;;;;;;;3.05;0.50;;;7.40;99.90;;;;;;6472180;22;20005;-85
2024/04/17 16:21:11;;;;;;;3.40;0.60;;;7.40;99.90;;;;;;6426161;22;20001;-84
2024/04/17 16:23:37;;;;;;;3.30;0.30;;;7.40;99.90;;;;;;6471094;22;20002;-84
2024/04/17 16:26:15;;;;;;;3.40;0.32;;;7.60;99.90;;;;;;6470656;22;20013;-83
2024/04/17 16:28:42;;;;;;;1.35;0.38;;;7.40;99.90;;;;;;6511487;21;20314;-84
2024/04/17 16:31:15;;;;;;;2.13;0.20;;;8.10;99.90;;;;;;6468224;22;20001;-84
2024/04/17 16:33:43;;;;;;;3.03;0.40;;;7.40;99.90;;;;;;6471425;22;20030;-84
2024/04/17 16:36:09;;;;;;;4.00;0.52;;;7.40;99.90;;;;;;6511464;22;20006;-83
2024/04/17 16:38:35;;;;;;;2.35;0.30;;;7.30;99.90;;;;;;6511840;21;20005;-84
2024/04/17 16:41:08;;;;;;;1.10;0.20;;;7.30;99.90;;;;;;6469059;22;20006;-84
2024/04/17 16:43:34;;;;;;;2.42;0.28;;;7.20;99.90;;;;;;6469120;22;20013;-84
2024/04/17 16:46:07;;;;;;;1.27;0.10;;;7.20;99.90;;;;;;6470320;22;20018;-84
2024/04/17 16:48:33;;;;;;;1.17;0.25;;;7.20;99.90;;;;;;6471607;22;20053;-84
2024/04/17 16:50:59;;;;;;;0.80;0.10;;;7.30;99.90;;;;;;6470551;22;20010;-84
2024/04/17 16:53:25;;;;;;;2.03;0.63;;;7.20;99.90;;;;;;6469193;22;20006;-84
2024/04/17 16:55:51;;;;;;;1.52;0.30;;;7.30;99.90;;;;;;6511187;22;20038;-83
2024/04/17 16:58:17;;;;;;;0.68;0.20;;;7.20;99.90;;;;;;6511928;22;20001;-84
2024/04/17 17:01:02;;;;;;;1.48;0.17;;;7.40;99.90;;;;;;6468288;22;19998;-84
2024/04/17 17:03:28;;;;;;;0.50;0.20;;;8.10;99.90;;;;;;6509681;22;20052;-83
2024/04/17 17:06:03;;;;;;;1.35;0.20;;;7.20;99.90;;;;;;6470421;22;20033;-83
2024/04/17 17:08:30;;;;;;;1.50;0.30;;;7.20;99.90;;;;;;6510416;21;20083;-84
2024/04/17 17:10:58;;;;;;;0.75;0.28;;;7.20;99.90;;;;;;6510179;22;20233;-83
2024/04/17 17:13:58;;;;;;;0.73;0.20;;;7.20;99.90;;;;;;6512955;22;20014;-84
2024/04/17 17:16:27;;;;;;;1.65;0.20;;;7.40;99.90;;;;;;6511776;22;20001;-82
2024/04/17 17:18:54;;;;;;;1.70;0.25;;;7.20;99.90;;;;;;6469422;22;20013;-84
2024/04/17 17:21:26;;;;;;;1.58;0.47;;;7.20;99.90;;;;;;6465368;22;20041;-84
2024/04/17 17:24:28;;;;;;;2.17;0.30;;;7.20;99.90;;;;;;6444642;22;20017;-83
2024/04/17 17:26:56;;;;;;;0.50;0.20;;;7.20;99.90;;;;;;6472229;22;20512;-83
2024/04/17 17:29:23;;;;;;;1.20;0.30;;;7.20;99.90;;;;;;6471198;22;20369;-83
2024/04/17 17:31:49;;;;;;;0.70;0.20;;;7.30;99.90;;;;;;6469704;22;20002;-84
2024/04/17 17:34:15;;;;;;;1.83;0.30;;;7.10;99.90;;;;;;6512107;22;19998;-83
2024/04/17 17:36:41;;;;;;;1.23;0.20;;;7.20;99.90;;;;;;6512672;22;20013;-83
2024/04/17 17:39:08;;;;;;;1.98;0.70;;;7.10;99.90;;;;;;6513165;21;20107;-83
2024/04/17 17:41:34;;;;;;;1.80;0.70;;;7.10;99.90;;;;;;6471954;22;20006;-84
2024/04/17 17:44:02;;;;;;;1.25;0.50;;;7.10;99.90;;;;;;6471920;22;20006;-83
2024/04/17 17:46:28;;;;;;;4.50;2.05;;;7.10;99.90;;;;;;6470458;22;20429;-82
2024/04/17 17:48:54;;;;;;;1.33;0.60;;;7.10;99.90;;;;;;6472617;22;20009;-83
2024/04/17 17:51:22;;;;;;;0.80;0.32;;;7.10;99.90;;;;;;6513054;22;20006;-84
2024/04/17 17:53:49;;;;;;;1.38;0.30;;;7.10;99.90;;;;;;6472527;22;20002;-84
2024/04/17 17:56:22;;;;;;;1.27;0.32;;;7.00;99.90;;;;;;6512456;22;20079;-84
2024/04/17 17:58:55;;;;;;;5.10;0.50;;;7.00;99.90;;;;;;6513145;21;20460;-84
2024/04/17 18:01:23;;;;;;;1.85;0.22;;;7.10;99.90;;;;;;6472580;22;20081;-85
2024/04/17 18:03:50;;;;;;;2.90;0.30;;;7.00;99.90;;;;;;6508903;22;20006;-83
2024/04/17 18:06:17;;;;;;;2.42;0.40;;;6.90;99.90;;;;;;6470583;22;20021;-85
2024/04/17 18:08:44;;;;;;;0.82;0.30;;;7.00;99.90;;;;;;6468271;22;20020;-84
2024/04/17 18:11:14;;;;;;;3.15;0.30;;;7.00;99.90;;;;;;6467340;22;20005;-83
2024/04/17 18:13:40;;;;;;;2.72;0.45;;;7.10;99.90;;;;;;6511034;22;20006;-84
2024/04/17 18:16:06;;;;;;;1.55;0.57;;;7.90;99.90;;;;;;6470273;22;20018;-83
2024/04/17 18:18:36;;;;;;;2.50;0.70;;;7.00;99.90;;;;;;6509744;21;20138;-85
2024/04/17 18:21:07;;;;;;;2.50;1.27;;;7.80;99.90;;;;;;6469352;22;20043;-84
2024/04/17 18:23:34;;;;;;;1.23;0.40;;;7.00;99.90;;;;;;6469665;22;20016;-84
2024/04/17 18:26:20;;;;;;;4.25;0.40;;;7.90;99.90;;;;;;6468599;22;20552;-84
2024/04/17 18:28:48;;;;;;;1.90;0.28;;;6.90;99.90;;;;;;6469656;22;20038;-82
2024/04/17 18:31:15;;;;;;;0.80;0.10;;;6.80;99.90;;;;;;6468239;22;20020;-82
2024/04/17 18:33:43;;;;;;;1.55;0.30;;;6.80;99.90;;;;;;6469323;22;20005;-83
2024/04/17 18:36:26;;;;;;;1.48;0.40;;;6.80;99.90;;;;;;6468921;22;20013;-83
2024/04/17 18:38:52;;;;;;;0.55;0.17;;;6.80;99.90;;;;;;6466424;22;20017;-83
2024/04/17 18:41:21;;;;;;;4.55;0.57;;;6.70;99.90;;;;;;6468133;22;20002;-83
2024/04/17 18:44:03;;;;;;;1.05;0.20;;;6.70;99.90;;;;;;6470290;22;20006;-83
2024/04/17 18:46:29;;;;;;;1.10;0.20;;;6.70;99.90;;;;;;6471130;22;20017;-83
2024/04/17 18:48:57;;;;;;;1.02;0.10;;;6.30;99.90;;;;;;6511762;21;20002;-83
2024/04/17 18:51:23;;;;;;;0.73;0.20;;;6.70;99.90;;;;;;6471117;22;20113;-83
2024/04/17 18:53:50;;;;;;;2.30;0.30;;;6.60;99.90;;;;;;6470550;22;20713;-84
2024/04/17 18:56:20;;;;;;;1.63;0.30;;;6.50;99.90;;;;;;6511362;22;20005;-84
2024/04/17 18:58:46;;;;;;;3.20;1.58;;;7.60;99.90;;;;;;6471832;22;20012;-83
2024/04/17 19:01:31;;;;;;;7.63;6.03;;;6.50;99.90;;;;;;6470998;22;20006;-84
2024/04/17 19:04:00;;;;;;;4.72;3.08;;;6.90;99.90;;;;;;6510588;22;20441;-84
2024/04/17 19:06:26;;;;;;;3.20;2.25;;;6.50;99.90;;;;;;6513441;22;19998;-83
2024/04/17 19:08:53;;;;;;;2.13;1.00;;;6.40;99.90;;;;;;6512654;21;20017;-83
2024/04/17 19:11:19;;;;;;;3.30;0.75;;;6.40;99.90;;;;;;6472269;22;20016;-83
2024/04/17 19:13:44;;;;;;;1.73;0.60;;;6.40;99.90;;;;;;6471934;22;20002;-83
2024/04/17 19:16:15;;;;;;;1.08;0.50;;;6.40;99.90;;;;;;6512509;22;20010;-83
2024/04/17 19:18:41;;;;;;;1.15;0.30;;;6.30;99.90;;;;;;6472161;22;20013;-83
2024/04/17 19:21:08;;;;;;;0.70;0.30;;;6.30;99.90;;;;;;6470706;22;20005;-82